sensor_id;sensor_type;location;lat;lon;timestamp;temperature;humidity
67862;DHT22;54665;51.462;6.698;2024-02-16T00:00:31;13.86;76.16
67862;DHT22;54665;51.462;6.698;2024-02-16T00:02:31;13.88;76.25
67862;DHT22;54665;51.462;6.698;2024-02-16T00:04:32;13.85;76.44
67862;DHT22;54665;51.462;6.698;2024-02-16T00:06:32;13.89;76.01
67862;DHT22;54665;51.462;6.698;2024-02-16T00:08:32;13.92;75.91
67862;DHT22;54665;51.462;6.698;2024-02-16T00:10:33;13.91;76.12
67862;DHT22;54665;51.462;6.698;2024-02-16T00:12:33;13.91;75.91
67862;DHT22;54665;51.462;6.698;2024-02-16T00:14:34;13.92;76.04
67862;DHT22;54665;51.462;6.698;2024-02-16T00:16:34;13.88;75.63
67862;DHT22;54665;51.462;6.698;2024-02-16T00:18:34;14.01;75.34
67862;DHT22;54665;51.462;6.698;2024-02-16T00:20:35;13.92;75.50
67862;DHT22;54665;51.462;6.698;2024-02-16T00:22:35;14.04;75.38
67862;DHT22;54665;51.462;6.698;2024-02-16T00:24:35;14.09;75.27
67862;DHT22;54665;51.462;6.698;2024-02-16T00:26:36;14.02;75.34
67862;DHT22;54665;51.462;6.698;2024-02-16T00:28:37;14.00;75.54
67862;DHT22;54665;51.462;6.698;2024-02-16T00:30:37;13.98;75.74
67862;DHT22;54665;51.462;6.698;2024-02-16T00:32:37;13.91;75.56
67862;DHT22;54665;51.462;6.698;2024-02-16T00:34:38;14.00;75.40
67862;DHT22;54665;51.462;6.698;2024-02-16T00:36:38;13.91;75.56
67862;DHT22;54665;51.462;6.698;2024-02-16T00:38:38;13.84;76.01
67862;DHT22;54665;51.462;6.698;2024-02-16T00:40:39;13.86;75.84
67862;DHT22;54665;51.462;6.698;2024-02-16T00:42:39;13.82;75.88
67862;DHT22;54665;51.462;6.698;2024-02-16T00:44:39;13.74;76.14
67862;DHT22;54665;51.462;6.698;2024-02-16T00:46:39;13.68;76.17
67862;DHT22;54665;51.462;6.698;2024-02-16T00:48:40;13.62;76.21
67862;DHT22;54665;51.462;6.698;2024-02-16T00:50:40;13.77;75.99
67862;DHT22;54665;51.462;6.698;2024-02-16T00:52:40;13.65;76.39
67862;DHT22;54665;51.462;6.698;2024-02-16T00:54:41;13.61;76.69
67862;DHT22;54665;51.462;6.698;2024-02-16T00:56:41;13.51;77.03
67862;DHT22;54665;51.462;6.698;2024-02-16T00:58:41;13.54;76.62
67862;DHT22;54665;51.462;6.698;2024-02-16T01:00:42;13.50;76.71
67862;DHT22;54665;51.462;6.698;2024-02-16T01:02:42;13.57;76.48
67862;DHT22;54665;51.462;6.698;2024-02-16T01:04:42;13.53;76.86
67862;DHT22;54665;51.462;6.698;2024-02-16T01:06:43;13.46;77.05
67862;DHT22;54665;51.462;6.698;2024-02-16T01:08:43;13.48;76.82
67862;DHT22;54665;51.462;6.698;2024-02-16T01:10:43;13.48;76.78
67862;DHT22;54665;51.462;6.698;2024-02-16T01:12:44;13.60;76.37
67862;DHT22;54665;51.462;6.698;2024-02-16T01:14:44;13.61;76.45
67862;DHT22;54665;51.462;6.698;2024-02-16T01:16:45;13.64;76.53
67862;DHT22;54665;51.462;6.698;2024-02-16T01:18:46;13.74;76.19
67862;DHT22;54665;51.462;6.698;2024-02-16T01:20:46;13.75;75.93
67862;DHT22;54665;51.462;6.698;2024-02-16T01:22:46;13.74;75.95
67862;DHT22;54665;51.462;6.698;2024-02-16T01:24:47;13.77;75.91
67862;DHT22;54665;51.462;6.698;2024-02-16T01:26:47;13.82;75.63
67862;DHT22;54665;51.462;6.698;2024-02-16T01:28:47;13.88;75.51
67862;DHT22;54665;51.462;6.698;2024-02-16T01:30:47;13.95;75.35
67862;DHT22;54665;51.462;6.698;2024-02-16T01:32:48;13.98;75.43
67862;DHT22;54665;51.462;6.698;2024-02-16T01:34:48;14.04;75.17
67862;DHT22;54665;51.462;6.698;2024-02-16T01:36:48;14.01;75.07
67862;DHT22;54665;51.462;6.698;2024-02-16T01:38:49;14.00;75.01
67862;DHT22;54665;51.462;6.698;2024-02-16T01:40:49;14.01;75.03
67862;DHT22;54665;51.462;6.698;2024-02-16T01:42:49;14.02;74.85
67862;DHT22;54665;51.462;6.698;2024-02-16T01:44:50;14.04;75.01
67862;DHT22;54665;51.462;6.698;2024-02-16T01:46:50;14.19;74.51
67862;DHT22;54665;51.462;6.698;2024-02-16T01:48:51;14.18;74.55
67862;DHT22;54665;51.462;6.698;2024-02-16T01:50:51;14.22;74.48
67862;DHT22;54665;51.462;6.698;2024-02-16T01:52:52;14.09;75.00
67862;DHT22;54665;51.462;6.698;2024-02-16T01:54:52;14.11;74.96
67862;DHT22;54665;51.462;6.698;2024-02-16T01:56:54;14.01;75.47
67862;DHT22;54665;51.462;6.698;2024-02-16T01:58:55;14.04;75.01
67862;DHT22;54665;51.462;6.698;2024-02-16T02:00:56;14.00;75.11
67862;DHT22;54665;51.462;6.698;2024-02-16T02:02:56;14.02;75.10
67862;DHT22;54665;51.462;6.698;2024-02-16T02:04:57;14.05;75.29
67862;DHT22;54665;51.462;6.698;2024-02-16T02:06:57;14.21;74.95
67862;DHT22;54665;51.462;6.698;2024-02-16T02:08:57;14.22;74.65
67862;DHT22;54665;51.462;6.698;2024-02-16T02:10:58;14.15;74.55
67862;DHT22;54665;51.462;6.698;2024-02-16T02:12:58;14.16;74.70
67862;DHT22;54665;51.462;6.698;2024-02-16T02:14:58;14.09;74.79
67862;DHT22;54665;51.462;6.698;2024-02-16T02:16:58;14.13;75.05
67862;DHT22;54665;51.462;6.698;2024-02-16T02:18:59;14.15;74.53
67862;DHT22;54665;51.462;6.698;2024-02-16T02:20:59;14.25;74.74
67862;DHT22;54665;51.462;6.698;2024-02-16T02:23:00;14.22;74.56
67862;DHT22;54665;51.462;6.698;2024-02-16T02:25:00;14.19;74.79
67862;DHT22;54665;51.462;6.698;2024-02-16T02:27:00;14.16;75.21
67862;DHT22;54665;51.462;6.698;2024-02-16T02:29:01;14.02;75.46
67862;DHT22;54665;51.462;6.698;2024-02-16T02:31:01;13.97;75.59
67862;DHT22;54665;51.462;6.698;2024-02-16T02:33:01;13.94;75.65
67862;DHT22;54665;51.462;6.698;2024-02-16T02:35:02;13.81;75.78
67862;DHT22;54665;51.462;6.698;2024-02-16T02:37:02;13.79;76.17
67862;DHT22;54665;51.462;6.698;2024-02-16T02:39:03;13.77;76.12
67862;DHT22;54665;51.462;6.698;2024-02-16T02:41:03;13.77;76.08
67862;DHT22;54665;51.462;6.698;2024-02-16T02:43:03;13.74;76.35
67862;DHT22;54665;51.462;6.698;2024-02-16T02:45:04;13.77;76.24
67862;DHT22;54665;51.462;6.698;2024-02-16T02:47:05;13.70;76.49
67862;DHT22;54665;51.462;6.698;2024-02-16T02:49:05;13.74;76.54
67862;DHT22;54665;51.462;6.698;2024-02-16T02:51:05;13.74;76.63
67862;DHT22;54665;51.462;6.698;2024-02-16T02:53:06;13.72;76.74
67862;DHT22;54665;51.462;6.698;2024-02-16T02:55:06;13.70;76.78
67862;DHT22;54665;51.462;6.698;2024-02-16T02:57:07;13.68;76.98
67862;DHT22;54665;51.462;6.698;2024-02-16T02:59:07;13.79;76.87
67862;DHT22;54665;51.462;6.698;2024-02-16T03:01:07;13.79;76.59
67862;DHT22;54665;51.462;6.698;2024-02-16T03:03:08;13.78;76.37
67862;DHT22;54665;51.462;6.698;2024-02-16T03:05:08;13.82;76.42
67862;DHT22;54665;51.462;6.698;2024-02-16T03:07:08;13.75;76.60
67862;DHT22;54665;51.462;6.698;2024-02-16T03:09:11;13.81;76.40
67862;DHT22;54665;51.462;6.698;2024-02-16T03:11:11;13.78;76.56
67862;DHT22;54665;51.462;6.698;2024-02-16T03:13:11;13.75;76.42
67862;DHT22;54665;51.462;6.698;2024-02-16T03:15:12;13.74;76.72
67862;DHT22;54665;51.462;6.698;2024-02-16T03:17:12;13.70;76.73
67862;DHT22;54665;51.462;6.698;2024-02-16T03:19:12;13.74;76.59
67862;DHT22;54665;51.462;6.698;2024-02-16T03:21:13;13.70;76.79
67862;DHT22;54665;51.462;6.698;2024-02-16T03:23:14;13.67;76.95
67862;DHT22;54665;51.462;6.698;2024-02-16T03:25:14;13.70;76.90
67862;DHT22;54665;51.462;6.698;2024-02-16T03:27:15;13.74;76.73
67862;DHT22;54665;51.462;6.698;2024-02-16T03:29:15;13.82;76.71
67862;DHT22;54665;51.462;6.698;2024-02-16T03:31:20;13.91;76.70
67862;DHT22;54665;51.462;6.698;2024-02-16T03:33:21;13.89;76.56
67862;DHT22;54665;51.462;6.698;2024-02-16T03:35:21;13.94;76.62
67862;DHT22;54665;51.462;6.698;2024-02-16T03:37:22;13.85;76.50
67862;DHT22;54665;51.462;6.698;2024-02-16T03:39:22;13.89;76.67
67862;DHT22;54665;51.462;6.698;2024-02-16T03:41:23;13.79;76.92
67862;DHT22;54665;51.462;6.698;2024-02-16T03:43:23;13.79;77.27
67862;DHT22;54665;51.462;6.698;2024-02-16T03:45:24;13.79;77.09
67862;DHT22;54665;51.462;6.698;2024-02-16T03:47:24;13.78;77.27
67862;DHT22;54665;51.462;6.698;2024-02-16T03:49:25;13.82;77.06
67862;DHT22;54665;51.462;6.698;2024-02-16T03:51:25;13.86;77.10
67862;DHT22;54665;51.462;6.698;2024-02-16T03:53:26;13.91;76.87
67862;DHT22;54665;51.462;6.698;2024-02-16T03:55:26;13.88;77.34
67862;DHT22;54665;51.462;6.698;2024-02-16T03:57:26;13.85;77.10
67862;DHT22;54665;51.462;6.698;2024-02-16T03:59:27;13.89;77.30
67862;DHT22;54665;51.462;6.698;2024-02-16T04:01:27;13.97;77.14
67862;DHT22;54665;51.462;6.698;2024-02-16T04:03:27;13.82;77.06
67862;DHT22;54665;51.462;6.698;2024-02-16T04:05:28;13.85;76.87
67862;DHT22;54665;51.462;6.698;2024-02-16T04:07:28;13.85;77.12
67862;DHT22;54665;51.462;6.698;2024-02-16T04:09:28;13.78;77.15
67862;DHT22;54665;51.462;6.698;2024-02-16T04:11:28;13.70;77.42
67862;DHT22;54665;51.462;6.698;2024-02-16T04:13:29;13.68;77.68
67862;DHT22;54665;51.462;6.698;2024-02-16T04:15:29;13.77;77.42
67862;DHT22;54665;51.462;6.698;2024-02-16T04:17:29;13.82;77.29
67862;DHT22;54665;51.462;6.698;2024-02-16T04:19:30;13.71;77.29
67862;DHT22;54665;51.462;6.698;2024-02-16T04:21:30;13.81;77.32
67862;DHT22;54665;51.462;6.698;2024-02-16T04:23:30;13.75;77.43
67862;DHT22;54665;51.462;6.698;2024-02-16T04:25:31;13.75;77.33
67862;DHT22;54665;51.462;6.698;2024-02-16T04:27:31;13.75;77.65
67862;DHT22;54665;51.462;6.698;2024-02-16T04:29:31;13.68;77.61
67862;DHT22;54665;51.462;6.698;2024-02-16T04:31:31;13.65;77.94
67862;DHT22;54665;51.462;6.698;2024-02-16T04:33:32;13.57;78.34
67862;DHT22;54665;51.462;6.698;2024-02-16T04:35:32;13.47;78.41
67862;DHT22;54665;51.462;6.698;2024-02-16T04:37:32;13.57;78.38
67862;DHT22;54665;51.462;6.698;2024-02-16T04:39:33;13.54;78.55
67862;DHT22;54665;51.462;6.698;2024-02-16T04:41:33;13.47;78.84
67862;DHT22;54665;51.462;6.698;2024-02-16T04:43:33;13.46;78.91
67862;DHT22;54665;51.462;6.698;2024-02-16T04:45:34;13.54;78.69
67862;DHT22;54665;51.462;6.698;2024-02-16T04:47:34;13.50;78.78
67862;DHT22;54665;51.462;6.698;2024-02-16T04:49:35;13.57;78.61
67862;DHT22;54665;51.462;6.698;2024-02-16T04:51:35;13.57;78.86
67862;DHT22;54665;51.462;6.698;2024-02-16T04:53:36;13.53;78.90
67862;DHT22;54665;51.462;6.698;2024-02-16T04:55:36;13.43;79.35
67862;DHT22;54665;51.462;6.698;2024-02-16T04:57:36;13.51;79.05
67862;DHT22;54665;51.462;6.698;2024-02-16T04:59:36;13.55;79.10
67862;DHT22;54665;51.462;6.698;2024-02-16T05:01:37;13.50;79.22
67862;DHT22;54665;51.462;6.698;2024-02-16T05:03:37;13.48;79.32
67862;DHT22;54665;51.462;6.698;2024-02-16T05:05:38;13.55;79.11
67862;DHT22;54665;51.462;6.698;2024-02-16T05:07:38;13.54;79.20
67862;DHT22;54665;51.462;6.698;2024-02-16T05:09:38;13.64;79.07
67862;DHT22;54665;51.462;6.698;2024-02-16T05:11:39;13.53;79.24
67862;DHT22;54665;51.462;6.698;2024-02-16T05:13:39;13.61;79.09
67862;DHT22;54665;51.462;6.698;2024-02-16T05:15:39;13.64;78.91
67862;DHT22;54665;51.462;6.698;2024-02-16T05:17:40;13.67;78.92
67862;DHT22;54665;51.462;6.698;2024-02-16T05:19:40;13.55;79.29
67862;DHT22;54665;51.462;6.698;2024-02-16T05:21:40;13.41;79.80
67862;DHT22;54665;51.462;6.698;2024-02-16T05:23:41;13.36;80.09
67862;DHT22;54665;51.462;6.698;2024-02-16T05:25:41;13.33;80.12
67862;DHT22;54665;51.462;6.698;2024-02-16T05:27:41;13.34;80.15
67862;DHT22;54665;51.462;6.698;2024-02-16T05:29:42;13.24;80.23
67862;DHT22;54665;51.462;6.698;2024-02-16T05:31:42;13.21;80.62
67862;DHT22;54665;51.462;6.698;2024-02-16T05:33:44;13.09;81.13
67862;DHT22;54665;51.462;6.698;2024-02-16T05:35:45;13.10;81.12
67862;DHT22;54665;51.462;6.698;2024-02-16T05:37:48;13.03;81.40
67862;DHT22;54665;51.462;6.698;2024-02-16T05:39:49;13.02;81.49
67862;DHT22;54665;51.462;6.698;2024-02-16T05:41:49;13.14;81.33
67862;DHT22;54665;51.462;6.698;2024-02-16T05:43:49;13.16;81.40
67862;DHT22;54665;51.462;6.698;2024-02-16T05:45:49;13.13;81.51
67862;DHT22;54665;51.462;6.698;2024-02-16T05:47:50;13.14;81.27
67862;DHT22;54665;51.462;6.698;2024-02-16T05:49:50;13.12;81.46
67862;DHT22;54665;51.462;6.698;2024-02-16T05:51:51;13.10;81.76
67862;DHT22;54665;51.462;6.698;2024-02-16T05:53:51;13.07;81.76
67862;DHT22;54665;51.462;6.698;2024-02-16T05:55:51;13.07;81.69
67862;DHT22;54665;51.462;6.698;2024-02-16T05:57:52;13.10;81.88
67862;DHT22;54665;51.462;6.698;2024-02-16T05:59:52;13.26;81.62
67862;DHT22;54665;51.462;6.698;2024-02-16T06:01:52;13.17;81.81
67862;DHT22;54665;51.462;6.698;2024-02-16T06:03:53;13.26;81.77
67862;DHT22;54665;51.462;6.698;2024-02-16T06:05:53;13.31;81.55
67862;DHT22;54665;51.462;6.698;2024-02-16T06:07:53;13.31;81.78
67862;DHT22;54665;51.462;6.698;2024-02-16T06:09:57;13.31;81.81
67862;DHT22;54665;51.462;6.698;2024-02-16T06:11:57;13.34;81.66
67862;DHT22;54665;51.462;6.698;2024-02-16T06:13:58;13.40;81.54
67862;DHT22;54665;51.462;6.698;2024-02-16T06:15:58;13.54;81.29
67862;DHT22;54665;51.462;6.698;2024-02-16T06:18:00;13.55;81.13
67862;DHT22;54665;51.462;6.698;2024-02-16T06:20:01;13.64;80.88
67862;DHT22;54665;51.462;6.698;2024-02-16T06:22:01;13.60;81.14
67862;DHT22;54665;51.462;6.698;2024-02-16T06:24:01;13.60;81.00
67862;DHT22;54665;51.462;6.698;2024-02-16T06:26:02;13.62;81.14
67862;DHT22;54665;51.462;6.698;2024-02-16T06:28:03;13.68;81.05
67862;DHT22;54665;51.462;6.698;2024-02-16T06:30:03;13.60;81.29
67862;DHT22;54665;51.462;6.698;2024-02-16T06:32:04;13.60;81.35
67862;DHT22;54665;51.462;6.698;2024-02-16T06:34:04;13.58;81.40
67862;DHT22;54665;51.462;6.698;2024-02-16T06:36:05;13.51;81.66
67862;DHT22;54665;51.462;6.698;2024-02-16T06:38:05;13.50;81.67
67862;DHT22;54665;51.462;6.698;2024-02-16T06:40:06;13.48;81.63
67862;DHT22;54665;51.462;6.698;2024-02-16T06:42:07;13.44;81.85
67862;DHT22;54665;51.462;6.698;2024-02-16T06:44:07;13.39;81.88
67862;DHT22;54665;51.462;6.698;2024-02-16T06:46:07;13.46;81.75
67862;DHT22;54665;51.462;6.698;2024-02-16T06:48:08;13.60;81.45
67862;DHT22;54665;51.462;6.698;2024-02-16T06:50:08;13.54;81.30
67862;DHT22;54665;51.462;6.698;2024-02-16T06:52:08;13.58;81.44
67862;DHT22;54665;51.462;6.698;2024-02-16T06:54:09;13.64;81.15
67862;DHT22;54665;51.462;6.698;2024-02-16T06:56:09;13.64;81.03
67862;DHT22;54665;51.462;6.698;2024-02-16T06:58:10;13.64;81.20
67862;DHT22;54665;51.462;6.698;2024-02-16T07:00:10;13.67;81.16
67862;DHT22;54665;51.462;6.698;2024-02-16T07:02:11;13.67;81.01
67862;DHT22;54665;51.462;6.698;2024-02-16T07:04:11;13.71;81.00
67862;DHT22;54665;51.462;6.698;2024-02-16T07:06:12;13.68;81.04
67862;DHT22;54665;51.462;6.698;2024-02-16T07:08:12;13.68;80.98
67862;DHT22;54665;51.462;6.698;2024-02-16T07:10:13;13.70;80.98
67862;DHT22;54665;51.462;6.698;2024-02-16T07:12:13;13.65;80.97
67862;DHT22;54665;51.462;6.698;2024-02-16T07:14:13;13.77;80.85
67862;DHT22;54665;51.462;6.698;2024-02-16T07:16:13;13.74;80.66
67862;DHT22;54665;51.462;6.698;2024-02-16T07:18:15;13.74;80.67
67862;DHT22;54665;51.462;6.698;2024-02-16T07:20:15;13.79;80.56
67862;DHT22;54665;51.462;6.698;2024-02-16T07:22:16;13.94;80.46
67862;DHT22;54665;51.462;6.698;2024-02-16T07:24:16;14.04;79.82
67862;DHT22;54665;51.462;6.698;2024-02-16T07:26:16;13.95;79.70
67862;DHT22;54665;51.462;6.698;2024-02-16T07:28:16;14.12;79.49
67862;DHT22;54665;51.462;6.698;2024-02-16T07:30:17;14.15;79.53
67862;DHT22;54665;51.462;6.698;2024-02-16T07:32:17;14.19;79.64
67862;DHT22;54665;51.462;6.698;2024-02-16T07:34:18;14.12;79.92
67862;DHT22;54665;51.462;6.698;2024-02-16T07:36:18;14.02;79.71
67862;DHT22;54665;51.462;6.698;2024-02-16T07:38:18;14.25;79.42
67862;DHT22;54665;51.462;6.698;2024-02-16T07:40:19;14.28;79.15
67862;DHT22;54665;51.462;6.698;2024-02-16T07:42:19;14.42;78.91
67862;DHT22;54665;51.462;6.698;2024-02-16T07:44:20;14.44;78.56
67862;DHT22;54665;51.462;6.698;2024-02-16T07:46:20;14.52;78.47
67862;DHT22;54665;51.462;6.698;2024-02-16T07:48:21;14.67;78.44
67862;DHT22;54665;51.462;6.698;2024-02-16T07:50:22;14.69;78.84
67862;DHT22;54665;51.462;6.698;2024-02-16T07:52:22;14.63;78.06
67862;DHT22;54665;51.462;6.698;2024-02-16T07:54:23;14.80;77.43
67862;DHT22;54665;51.462;6.698;2024-02-16T07:56:23;14.79;77.52
67862;DHT22;54665;51.462;6.698;2024-02-16T07:58:23;14.77;77.70
67862;DHT22;54665;51.462;6.698;2024-02-16T08:00:24;14.83;77.06
67862;DHT22;54665;51.462;6.698;2024-02-16T08:02:25;14.94;77.01
67862;DHT22;54665;51.462;6.698;2024-02-16T08:04:25;14.76;76.99
67862;DHT22;54665;51.462;6.698;2024-02-16T08:06:26;14.87;77.15
67862;DHT22;54665;51.462;6.698;2024-02-16T08:08:26;14.95;76.92
67862;DHT22;54665;51.462;6.698;2024-02-16T08:10:27;14.98;76.91
67862;DHT22;54665;51.462;6.698;2024-02-16T08:12:27;14.98;76.85
67862;DHT22;54665;51.462;6.698;2024-02-16T08:14:27;14.88;76.81
67862;DHT22;54665;51.462;6.698;2024-02-16T08:16:28;15.10;76.57
67862;DHT22;54665;51.462;6.698;2024-02-16T08:18:28;15.04;76.22
67862;DHT22;54665;51.462;6.698;2024-02-16T08:20:28;15.24;75.77
67862;DHT22;54665;51.462;6.698;2024-02-16T08:22:29;15.23;75.71
67862;DHT22;54665;51.462;6.698;2024-02-16T08:24:29;15.31;75.78
67862;DHT22;54665;51.462;6.698;2024-02-16T08:26:29;15.39;75.27
67862;DHT22;54665;51.462;6.698;2024-02-16T08:28:29;15.52;75.37
67862;DHT22;54665;51.462;6.698;2024-02-16T08:30:30;15.67;74.55
67862;DHT22;54665;51.462;6.698;2024-02-16T08:32:30;15.76;74.65
67862;DHT22;54665;51.462;6.698;2024-02-16T08:34:30;15.69;73.84
67862;DHT22;54665;51.462;6.698;2024-02-16T08:36:31;15.75;74.14
67862;DHT22;54665;51.462;6.698;2024-02-16T08:38:31;15.72;74.57
67862;DHT22;54665;51.462;6.698;2024-02-16T08:40:31;15.62;74.20
67862;DHT22;54665;51.462;6.698;2024-02-16T08:42:31;15.72;74.23
67862;DHT22;54665;51.462;6.698;2024-02-16T08:44:32;15.82;74.47
67862;DHT22;54665;51.462;6.698;2024-02-16T08:46:32;15.82;74.15
67862;DHT22;54665;51.462;6.698;2024-02-16T08:48:33;15.63;74.49
67862;DHT22;54665;51.462;6.698;2024-02-16T08:50:33;15.66;74.55
67862;DHT22;54665;51.462;6.698;2024-02-16T08:52:33;15.55;74.36
67862;DHT22;54665;51.462;6.698;2024-02-16T08:54:34;15.67;74.61
67862;DHT22;54665;51.462;6.698;2024-02-16T08:56:34;15.62;74.36
67862;DHT22;54665;51.462;6.698;2024-02-16T08:58:35;15.82;74.37
67862;DHT22;54665;51.462;6.698;2024-02-16T09:00:35;15.70;74.49
67862;DHT22;54665;51.462;6.698;2024-02-16T09:02:35;15.76;74.42
67862;DHT22;54665;51.462;6.698;2024-02-16T09:04:35;15.81;74.17
67862;DHT22;54665;51.462;6.698;2024-02-16T09:06:36;15.79;74.22
67862;DHT22;54665;51.462;6.698;2024-02-16T09:08:36;15.67;74.66
67862;DHT22;54665;51.462;6.698;2024-02-16T09:10:36;15.62;74.69
67862;DHT22;54665;51.462;6.698;2024-02-16T09:12:37;15.66;74.93
67862;DHT22;54665;51.462;6.698;2024-02-16T09:14:37;15.85;74.91
67862;DHT22;54665;51.462;6.698;2024-02-16T09:16:37;15.97;75.96
67862;DHT22;54665;51.462;6.698;2024-02-16T09:18:38;15.70;76.18
67862;DHT22;54665;51.462;6.698;2024-02-16T09:20:38;15.76;75.83
67862;DHT22;54665;51.462;6.698;2024-02-16T09:22:40;15.70;75.69
67862;DHT22;54665;51.462;6.698;2024-02-16T09:24:40;15.70;76.19
67862;DHT22;54665;51.462;6.698;2024-02-16T09:26:41;15.65;75.67
67862;DHT22;54665;51.462;6.698;2024-02-16T09:28:41;15.72;75.34
67862;DHT22;54665;51.462;6.698;2024-02-16T09:30:41;15.86;75.72
67862;DHT22;54665;51.462;6.698;2024-02-16T09:32:41;16.02;76.13
67862;DHT22;54665;51.462;6.698;2024-02-16T09:34:42;15.90;75.90
67862;DHT22;54665;51.462;6.698;2024-02-16T09:36:42;16.09;76.52
67862;DHT22;54665;51.462;6.698;2024-02-16T09:38:43;16.07;75.54
67862;DHT22;54665;51.462;6.698;2024-02-16T09:40:44;16.40;75.16
67862;DHT22;54665;51.462;6.698;2024-02-16T09:42:48;16.09;74.69
67862;DHT22;54665;51.462;6.698;2024-02-16T09:44:48;16.28;75.08
67862;DHT22;54665;51.462;6.698;2024-02-16T09:46:50;16.21;75.20
67862;DHT22;54665;51.462;6.698;2024-02-16T09:48:53;16.36;74.77
67862;DHT22;54665;51.462;6.698;2024-02-16T09:50:55;16.40;74.95
67862;DHT22;54665;51.462;6.698;2024-02-16T09:52:56;16.34;74.85
67862;DHT22;54665;51.462;6.698;2024-02-16T09:54:56;16.44;74.87
67862;DHT22;54665;51.462;6.698;2024-02-16T09:56:57;16.64;74.33
67862;DHT22;54665;51.462;6.698;2024-02-16T09:58:57;16.43;74.43
67862;DHT22;54665;51.462;6.698;2024-02-16T10:00:57;16.54;74.66
67862;DHT22;54665;51.462;6.698;2024-02-16T10:02:57;16.50;75.01
67862;DHT22;54665;51.462;6.698;2024-02-16T10:04:58;16.34;74.63
67862;DHT22;54665;51.462;6.698;2024-02-16T10:06:58;16.26;75.48
67862;DHT22;54665;51.462;6.698;2024-02-16T10:08:58;16.26;75.45
67862;DHT22;54665;51.462;6.698;2024-02-16T10:11:03;16.44;75.37
67862;DHT22;54665;51.462;6.698;2024-02-16T10:13:04;16.48;74.82
67862;DHT22;54665;51.462;6.698;2024-02-16T10:15:05;16.26;75.16
67862;DHT22;54665;51.462;6.698;2024-02-16T10:17:06;16.24;75.65
67862;DHT22;54665;51.462;6.698;2024-02-16T10:19:07;16.38;75.76
67862;DHT22;54665;51.462;6.698;2024-02-16T10:21:08;16.40;75.56
67862;DHT22;54665;51.462;6.698;2024-02-16T10:23:11;16.40;75.03
67862;DHT22;54665;51.462;6.698;2024-02-16T10:25:12;16.53;74.86
67862;DHT22;54665;51.462;6.698;2024-02-16T10:27:16;16.58;74.96
67862;DHT22;54665;51.462;6.698;2024-02-16T10:29:18;16.57;75.49
67862;DHT22;54665;51.462;6.698;2024-02-16T10:31:18;16.79;74.61
67862;DHT22;54665;51.462;6.698;2024-02-16T10:33:20;16.84;74.72
67862;DHT22;54665;51.462;6.698;2024-02-16T10:35:21;16.72;74.54
67862;DHT22;54665;51.462;6.698;2024-02-16T10:37:22;16.54;74.96
67862;DHT22;54665;51.462;6.698;2024-02-16T10:39:23;16.65;74.98
67862;DHT22;54665;51.462;6.698;2024-02-16T10:41:27;16.53;75.82
67862;DHT22;54665;51.462;6.698;2024-02-16T10:43:28;16.34;75.75
67862;DHT22;54665;51.462;6.698;2024-02-16T10:45:30;16.51;75.94
67862;DHT22;54665;51.462;6.698;2024-02-16T10:47:31;16.46;75.79
67862;DHT22;54665;51.462;6.698;2024-02-16T10:49:32;16.37;75.55
67862;DHT22;54665;51.462;6.698;2024-02-16T10:51:38;16.58;75.65
67862;DHT22;54665;51.462;6.698;2024-02-16T10:53:39;16.36;76.00
67862;DHT22;54665;51.462;6.698;2024-02-16T10:55:41;16.33;76.14
67862;DHT22;54665;51.462;6.698;2024-02-16T10:57:41;16.23;75.97
67862;DHT22;54665;51.462;6.698;2024-02-16T10:59:42;16.18;76.51
67862;DHT22;54665;51.462;6.698;2024-02-16T11:01:44;16.41;76.30
67862;DHT22;54665;51.462;6.698;2024-02-16T11:03:44;16.30;76.32
67862;DHT22;54665;51.462;6.698;2024-02-16T11:05:45;16.30;76.64
67862;DHT22;54665;51.462;6.698;2024-02-16T11:07:45;16.23;76.55
67862;DHT22;54665;51.462;6.698;2024-02-16T11:09:46;16.31;76.75
67862;DHT22;54665;51.462;6.698;2024-02-16T11:11:52;16.14;77.00
67862;DHT22;54665;51.462;6.698;2024-02-16T11:13:54;15.99;77.49
67862;DHT22;54665;51.462;6.698;2024-02-16T11:15:59;16.14;77.43
67862;DHT22;54665;51.462;6.698;2024-02-16T11:18:01;16.17;77.15
67862;DHT22;54665;51.462;6.698;2024-02-16T11:20:01;16.13;77.06
67862;DHT22;54665;51.462;6.698;2024-02-16T11:22:05;16.14;77.33
67862;DHT22;54665;51.462;6.698;2024-02-16T11:24:08;15.99;77.74
67862;DHT22;54665;51.462;6.698;2024-02-16T11:26:10;16.05;78.05
67862;DHT22;54665;51.462;6.698;2024-02-16T11:28:11;15.82;78.60
67862;DHT22;54665;51.462;6.698;2024-02-16T11:30:13;15.89;78.22
67862;DHT22;54665;51.462;6.698;2024-02-16T11:32:13;15.86;78.77
67862;DHT22;54665;51.462;6.698;2024-02-16T11:34:23;15.85;78.90
67862;DHT22;54665;51.462;6.698;2024-02-16T11:36:23;15.97;79.10
67862;DHT22;54665;51.462;6.698;2024-02-16T11:38:24;16.02;78.96
67862;DHT22;54665;51.462;6.698;2024-02-16T11:40:25;15.87;79.00
67862;DHT22;54665;51.462;6.698;2024-02-16T11:42:25;15.93;78.93
67862;DHT22;54665;51.462;6.698;2024-02-16T11:44:25;15.99;79.07
67862;DHT22;54665;51.462;6.698;2024-02-16T11:46:26;16.16;78.45
67862;DHT22;54665;51.462;6.698;2024-02-16T11:48:26;15.97;79.30
67862;DHT22;54665;51.462;6.698;2024-02-16T11:50:27;16.05;78.86
67862;DHT22;54665;51.462;6.698;2024-02-16T11:52:27;15.99;79.20
67862;DHT22;54665;51.462;6.698;2024-02-16T11:54:27;15.96;79.02
67862;DHT22;54665;51.462;6.698;2024-02-16T11:56:28;15.93;79.41
67862;DHT22;54665;51.462;6.698;2024-02-16T11:58:29;15.92;79.45
67862;DHT22;54665;51.462;6.698;2024-02-16T12:00:30;15.85;79.93
67862;DHT22;54665;51.462;6.698;2024-02-16T12:02:30;15.93;79.67
67862;DHT22;54665;51.462;6.698;2024-02-16T12:04:31;15.96;79.62
67862;DHT22;54665;51.462;6.698;2024-02-16T12:06:31;16.09;79.31
67862;DHT22;54665;51.462;6.698;2024-02-16T12:08:33;15.83;79.93
67862;DHT22;54665;51.462;6.698;2024-02-16T12:10:33;15.83;80.15
67862;DHT22;54665;51.462;6.698;2024-02-16T12:12:34;15.73;80.29
67862;DHT22;54665;51.462;6.698;2024-02-16T12:14:34;15.79;80.67
67862;DHT22;54665;51.462;6.698;2024-02-16T12:16:37;15.76;80.59
67862;DHT22;54665;51.462;6.698;2024-02-16T12:18:37;15.63;80.83
67862;DHT22;54665;51.462;6.698;2024-02-16T12:20:37;15.86;80.53
67862;DHT22;54665;51.462;6.698;2024-02-16T12:22:37;15.82;80.69
67862;DHT22;54665;51.462;6.698;2024-02-16T12:24:38;15.85;80.74
67862;DHT22;54665;51.462;6.698;2024-02-16T12:26:38;15.70;81.04
67862;DHT22;54665;51.462;6.698;2024-02-16T12:28:38;15.82;81.05
67862;DHT22;54665;51.462;6.698;2024-02-16T12:30:39;15.75;80.93
67862;DHT22;54665;51.462;6.698;2024-02-16T12:32:39;15.69;81.43
67862;DHT22;54665;51.462;6.698;2024-02-16T12:34:39;15.69;81.32
67862;DHT22;54665;51.462;6.698;2024-02-16T12:36:42;15.73;81.17
67862;DHT22;54665;51.462;6.698;2024-02-16T12:38:42;15.75;81.32
67862;DHT22;54665;51.462;6.698;2024-02-16T12:40:46;15.75;81.48